createdAt,value
2023-05-19T00:02:27.251Z,100.00
2023-05-19T00:05:31.234Z,100.00
2023-05-19T00:08:35.161Z,100.00
2023-05-19T00:11:40.830Z,100.00
2023-05-19T00:14:44.180Z,100.00
2023-05-19T00:17:47.800Z,100.00
2023-05-19T00:20:52.516Z,100.00
2023-05-19T00:23:56.448Z,100.00
2023-05-19T00:26:59.814Z,100.00
2023-05-19T00:30:03.157Z,100.00
2023-05-19T00:33:06.486Z,100.00
2023-05-19T00:36:10.359Z,100.00
2023-05-19T00:39:13.657Z,100.00
2023-05-19T00:42:17.941Z,100.00
2023-05-19T00:45:21.149Z,100.00
2023-05-19T00:48:26.136Z,100.00
2023-05-19T00:51:29.939Z,100.00
2023-05-19T00:54:36.582Z,100.00
2023-05-19T00:57:39.991Z,100.00
2023-05-19T01:00:44.496Z,100.00
2023-05-19T01:03:49.143Z,100.00
2023-05-19T01:06:55.931Z,100.00
2023-05-19T01:10:00.171Z,100.00
2023-05-19T01:13:05.756Z,100.00
2023-05-19T01:16:21.529Z,100.00
2023-05-19T01:19:37.139Z,100.00
2023-05-19T01:23:01.995Z,100.00
2023-05-19T01:26:30.386Z,100.00
2023-05-19T01:29:45.770Z,100.00
2023-05-19T01:32:51.653Z,100.00
2023-05-19T01:35:56.663Z,100.00
2023-05-19T01:39:02.374Z,100.00
2023-05-19T01:42:06.871Z,100.00
2023-05-19T01:45:11.634Z,100.00
2023-05-19T01:48:15.545Z,100.00
2023-05-19T01:51:19.189Z,100.00
2023-05-19T01:54:22.770Z,100.00
2023-05-19T01:57:50.949Z,100.00
2023-05-19T02:01:15.876Z,100.00
2023-05-19T02:04:32.570Z,100.00
2023-05-19T02:07:45.259Z,100.00
2023-05-19T02:10:55.553Z,100.00
2023-05-19T02:14:03.092Z,100.00
2023-05-19T02:17:06.755Z,100.00
2023-05-19T02:20:10.477Z,100.00
2023-05-19T02:23:13.839Z,100.00
2023-05-19T02:26:17.025Z,100.00
2023-05-19T02:29:21.476Z,100.00
2023-05-19T02:32:26.539Z,100.00
2023-05-19T02:35:29.927Z,100.00
2023-05-19T02:38:33.041Z,100.00
2023-05-19T02:41:36.928Z,100.00
2023-05-19T02:44:40.352Z,100.00
2023-05-19T02:47:43.747Z,100.00
2023-05-19T02:50:47.065Z,100.00
2023-05-19T02:53:51.042Z,100.00
2023-05-19T02:56:54.227Z,100.00
2023-05-19T02:59:57.895Z,100.00
2023-05-19T03:03:03.025Z,100.00
2023-05-19T03:06:08.843Z,100.00
2023-05-19T03:09:11.977Z,100.00
2023-05-19T03:12:15.453Z,100.00
2023-05-19T03:15:19.410Z,100.00
2023-05-19T03:18:24.958Z,100.00
2023-05-19T03:21:30.469Z,100.00
2023-05-19T03:24:35.066Z,100.00
2023-05-19T03:27:38.542Z,100.00
2023-05-19T03:30:42.459Z,100.00
2023-05-19T03:33:45.929Z,100.00
2023-05-19T03:36:50.489Z,100.00
2023-05-19T03:39:53.697Z,100.00
2023-05-19T03:42:57.347Z,100.00
2023-05-19T03:46:01.008Z,100.00
2023-05-19T03:49:06.591Z,100.00
2023-05-19T03:52:11.103Z,100.00
2023-05-19T03:55:20.338Z,100.00
2023-05-19T03:58:24.233Z,100.00
2023-05-19T04:01:29.806Z,100.00
2023-05-19T04:04:34.184Z,100.00
2023-05-19T04:07:37.345Z,100.00
2023-05-19T04:10:40.792Z,100.00
2023-05-19T04:13:45.195Z,100.00
2023-05-19T04:16:49.067Z,100.00
2023-05-19T04:19:55.765Z,100.00
2023-05-19T04:22:59.224Z,100.00
2023-05-19T04:26:06.332Z,100.00
2023-05-19T04:29:10.898Z,100.00
2023-05-19T04:32:17.985Z,100.00
2023-05-19T04:35:22.712Z,100.00
2023-05-19T04:38:26.294Z,100.00
2023-05-19T04:41:29.682Z,100.00
2023-05-19T04:44:33.824Z,100.00
2023-05-19T04:47:38.277Z,100.00
2023-05-19T04:50:42.460Z,100.00
2023-05-19T04:53:47.471Z,100.00
2023-05-19T04:56:50.818Z,100.00
2023-05-19T05:00:00.416Z,100.00
2023-05-19T05:03:07.982Z,100.00
2023-05-19T05:06:12.222Z,100.00
2023-05-19T05:09:17.007Z,100.00
2023-05-19T05:12:22.100Z,100.00
2023-05-19T05:15:28.977Z,100.00
2023-05-19T05:18:34.867Z,100.00
2023-05-19T05:21:38.684Z,100.00
2023-05-19T05:24:45.408Z,100.00
2023-05-19T05:27:49.672Z,100.00
2023-05-19T05:30:56.606Z,100.00
2023-05-19T05:34:00.461Z,100.00
2023-05-19T05:37:04.392Z,100.00
2023-05-19T05:40:08.615Z,100.00
2023-05-19T05:43:13.071Z,100.00
2023-05-19T05:46:17.229Z,100.00
2023-05-19T05:49:21.190Z,100.00
2023-05-19T05:52:29.972Z,100.00
2023-05-19T05:55:36.266Z,100.00
2023-05-19T05:58:41.474Z,100.00
2023-05-19T06:01:45.198Z,100.00
2023-05-19T06:04:48.654Z,100.00
2023-05-19T06:07:52.072Z,100.00
2023-05-19T06:10:55.744Z,100.00
2023-05-19T06:13:59.115Z,100.00
2023-05-19T06:17:05.499Z,100.00
2023-05-19T06:20:10.291Z,100.00
2023-05-19T06:23:14.027Z,100.00
2023-05-19T06:26:17.338Z,100.00
2023-05-19T06:29:21.129Z,100.00
2023-05-19T06:32:24.597Z,98.71
2023-05-19T06:35:28.406Z,97.83
2023-05-19T06:38:31.731Z,95.99
2023-05-19T06:41:35.453Z,97.23
2023-05-19T06:44:39.475Z,93.55
2023-05-19T06:47:45.742Z,93.36
2023-05-19T06:50:51.077Z,94.07
2023-05-19T06:53:55.999Z,90.28
2023-05-19T06:56:59.606Z,91.67
2023-05-19T07:00:13.431Z,86.78
2023-05-19T07:03:18.846Z,85.91
2023-05-19T07:06:22.539Z,83.67
2023-05-19T07:09:29.941Z,88.34
2023-05-19T07:12:33.417Z,85.26
2023-05-19T07:15:38.403Z,86.41
2023-05-19T07:18:45.207Z,88.52
2023-05-19T07:21:48.636Z,84.46
2023-05-19T07:24:52.901Z,80.50
2023-05-19T07:27:57.788Z,81.90
2023-05-19T07:31:01.620Z,85.39
2023-05-19T07:34:05.182Z,80.21
2023-05-19T07:37:08.633Z,84.24
2023-05-19T07:40:12.147Z,83.18
2023-05-19T07:43:15.743Z,81.39
2023-05-19T07:46:19.004Z,78.98
2023-05-19T07:49:22.602Z,79.26
2023-05-19T07:52:27.737Z,77.01
2023-05-19T07:55:31.213Z,78.24
2023-05-19T07:58:34.382Z,74.90
2023-05-19T08:01:37.736Z,77.22
2023-05-19T08:04:41.187Z,79.41
2023-05-19T08:07:44.239Z,77.39
2023-05-19T08:10:47.854Z,74.37
2023-05-19T08:13:51.911Z,78.03
2023-05-19T08:16:56.760Z,77.00
2023-05-19T08:20:00.535Z,73.75
2023-05-19T08:23:04.710Z,73.62
2023-05-19T08:26:07.868Z,71.52
2023-05-19T08:29:11.254Z,73.92
2023-05-19T08:32:14.341Z,71.50
2023-05-19T08:35:17.844Z,73.08
2023-05-19T08:38:21.157Z,73.48
2023-05-19T08:41:24.600Z,68.29
2023-05-19T08:44:27.921Z,69.18
2023-05-19T08:47:32.875Z,62.35
2023-05-19T08:50:40.403Z,66.68
2023-05-19T08:53:50.874Z,66.61
2023-05-19T08:56:56.089Z,63.42
2023-05-19T09:00:00.331Z,65.38
2023-05-19T09:03:17.446Z,62.28
2023-05-19T09:06:23.469Z,60.88
2023-05-19T09:09:26.793Z,62.48
2023-05-19T09:12:30.509Z,63.90
2023-05-19T09:15:37.067Z,62.77
2023-05-19T09:18:43.266Z,61.89
2023-05-19T09:21:46.596Z,63.33
2023-05-19T09:24:50.062Z,64.53
2023-05-19T09:27:55.457Z,63.86
2023-05-19T09:31:07.978Z,61.14
2023-05-19T09:34:14.388Z,58.57
2023-05-19T09:37:23.290Z,61.35
2023-05-19T09:40:28.963Z,63.19
2023-05-19T09:43:34.622Z,58.96
2023-05-19T09:46:38.041Z,61.17
2023-05-19T09:49:47.572Z,59.51
2023-05-19T09:52:53.167Z,58.52
2023-05-19T09:55:58.169Z,58.90
2023-05-19T09:59:04.831Z,55.03
2023-05-19T10:02:15.960Z,54.51
2023-05-19T10:05:20.948Z,56.99
2023-05-19T10:08:26.708Z,63.78
2023-05-19T10:11:31.115Z,62.80
2023-05-19T10:14:34.440Z,62.25
2023-05-19T10:17:42.700Z,62.40
2023-05-19T10:20:47.840Z,56.57
2023-05-19T10:23:51.224Z,61.57
2023-05-19T10:27:03.972Z,61.12
2023-05-19T10:30:22.130Z,64.17
2023-05-19T10:33:44.030Z,68.15
2023-05-19T10:36:55.950Z,66.40
2023-05-19T10:39:59.975Z,57.12
2023-05-19T10:43:18.377Z,59.72
2023-05-19T10:46:27.096Z,56.58
2023-05-19T10:49:36.052Z,59.63
2023-05-19T10:52:40.792Z,64.68
2023-05-19T10:55:59.262Z,65.89
2023-05-19T10:59:03.897Z,63.16
2023-05-19T11:02:08.924Z,65.09
2023-05-19T11:05:14.806Z,65.96
2023-05-19T11:08:33.727Z,67.04
2023-05-19T11:12:04.108Z,60.49
2023-05-19T11:15:10.617Z,58.12
2023-05-19T11:18:17.783Z,63.09
2023-05-19T11:21:21.149Z,61.27
2023-05-19T11:24:44.480Z,61.86
2023-05-19T11:27:47.898Z,59.55
2023-05-19T11:30:54.751Z,56.72
2023-05-19T11:33:58.713Z,53.10
2023-05-19T11:37:01.877Z,55.50
2023-05-19T11:40:09.759Z,54.37
2023-05-19T11:43:12.840Z,52.25
2023-05-19T11:46:17.742Z,55.68
2023-05-19T11:49:20.939Z,54.30
2023-05-19T11:52:27.646Z,53.55
2023-05-19T11:55:30.883Z,49.76
2023-05-19T11:58:34.459Z,52.66
2023-05-19T12:01:37.633Z,51.57
2023-05-19T12:04:41.178Z,54.13
2023-05-19T12:07:44.532Z,53.91
2023-05-19T12:10:52.610Z,50.59
2023-05-19T12:13:59.099Z,49.81
2023-05-19T12:17:14.260Z,48.57
2023-05-19T12:20:19.968Z,47.60
2023-05-19T12:23:25.262Z,47.15
2023-05-19T12:26:28.406Z,50.64
2023-05-19T12:29:33.146Z,53.62
2023-05-19T12:32:36.607Z,53.75
2023-05-19T12:35:40.028Z,56.44
2023-05-19T12:38:43.859Z,56.43
2023-05-19T12:41:47.425Z,49.62
2023-05-19T12:44:52.712Z,49.14
2023-05-19T12:47:56.497Z,50.48
2023-05-19T12:51:01.654Z,45.02
2023-05-19T12:54:05.152Z,44.72
2023-05-19T12:57:11.300Z,48.22
2023-05-19T13:00:19.083Z,51.27
2023-05-19T13:03:22.472Z,54.50
2023-05-19T13:06:26.204Z,53.01
2023-05-19T13:09:29.337Z,48.99
2023-05-19T13:12:32.846Z,50.60
2023-05-19T13:15:40.600Z,45.33
2023-05-19T13:18:44.174Z,46.78
2023-05-19T13:21:51.285Z,46.53
2023-05-19T13:24:54.619Z,48.21
2023-05-19T13:27:59.554Z,48.20
2023-05-19T13:31:02.992Z,49.84
2023-05-19T13:34:06.320Z,47.19
2023-05-19T13:37:10.300Z,47.43
2023-05-19T13:40:15.055Z,47.54
2023-05-19T13:43:18.543Z,46.18
2023-05-19T13:46:32.775Z,47.71
2023-05-19T13:49:46.579Z,46.32
2023-05-19T13:52:49.781Z,48.26
2023-05-19T13:55:55.285Z,47.19
2023-05-19T13:58:58.634Z,48.09
2023-05-19T14:02:06.655Z,48.51
2023-05-19T14:05:11.078Z,50.21
2023-05-19T14:08:14.468Z,52.37
2023-05-19T14:11:22.772Z,51.93
2023-05-19T14:14:26.136Z,51.70
2023-05-19T14:17:29.612Z,52.55
2023-05-19T14:20:33.254Z,51.17
2023-05-19T14:23:36.873Z,51.99
2023-05-19T14:26:40.122Z,51.64
2023-05-19T14:29:43.684Z,53.52
2023-05-19T14:32:46.839Z,52.90
2023-05-19T14:35:50.685Z,53.52
2023-05-19T14:38:53.765Z,51.40
2023-05-19T14:41:59.703Z,50.26
2023-05-19T14:45:02.816Z,52.42
2023-05-19T14:48:06.607Z,53.19
2023-05-19T14:51:09.937Z,54.06
2023-05-19T14:54:13.373Z,54.17
2023-05-19T14:57:16.645Z,53.68
2023-05-19T15:00:20.181Z,52.30
2023-05-19T15:03:23.544Z,51.38
2023-05-19T15:06:27.063Z,52.21
2023-05-19T15:09:30.090Z,52.36
2023-05-19T15:12:33.798Z,52.83
2023-05-19T15:15:36.964Z,52.78
2023-05-19T15:18:40.582Z,55.00
2023-05-19T15:21:45.724Z,53.72
2023-05-19T15:24:49.143Z,53.75
2023-05-19T15:27:52.282Z,53.29
2023-05-19T15:30:55.916Z,54.51
2023-05-19T15:33:59.112Z,53.66
2023-05-19T15:37:02.565Z,53.64
2023-05-19T15:40:06.612Z,53.97
2023-05-19T15:43:10.031Z,51.69
2023-05-19T15:46:13.474Z,53.16
2023-05-19T15:49:18.071Z,53.23
2023-05-19T15:52:21.457Z,51.33
2023-05-19T15:55:24.860Z,51.24
2023-05-19T15:58:28.046Z,52.97
2023-05-19T16:01:32.625Z,52.76
2023-05-19T16:04:36.188Z,53.28
2023-05-19T16:07:39.375Z,54.85
2023-05-19T16:10:42.746Z,54.50
2023-05-19T16:13:46.530Z,55.18
2023-05-19T16:16:49.947Z,53.51
2023-05-19T16:19:53.182Z,53.98
2023-05-19T16:22:56.646Z,54.34
2023-05-19T16:25:59.647Z,55.24
2023-05-19T16:29:03.197Z,55.87
2023-05-19T16:32:06.805Z,55.37
2023-05-19T16:35:11.056Z,55.93
2023-05-19T16:38:14.213Z,55.61
2023-05-19T16:41:17.649Z,56.95
2023-05-19T16:44:21.009Z,59.55
2023-05-19T16:47:25.568Z,59.74
2023-05-19T16:50:28.683Z,60.98
2023-05-19T16:53:33.258Z,62.25
2023-05-19T16:56:36.452Z,63.08
2023-05-19T16:59:39.996Z,63.93
2023-05-19T17:02:43.261Z,64.90
2023-05-19T17:05:46.837Z,66.50
2023-05-19T17:08:50.078Z,66.11
2023-05-19T17:11:54.179Z,67.94
2023-05-19T17:14:57.619Z,70.00
2023-05-19T17:18:01.091Z,71.51
2023-05-19T17:21:05.571Z,72.87
2023-05-19T17:24:09.193Z,74.25
2023-05-19T17:27:12.308Z,74.53
2023-05-19T17:30:16.635Z,74.99
2023-05-19T17:33:19.891Z,76.96
2023-05-19T17:36:23.348Z,77.83
2023-05-19T17:39:26.505Z,79.52
2023-05-19T17:42:31.773Z,80.68
2023-05-19T17:45:35.225Z,80.98
2023-05-19T17:48:40.034Z,83.86
2023-05-19T17:51:43.563Z,87.97
2023-05-19T17:54:47.180Z,90.19
2023-05-19T17:57:50.801Z,91.01
2023-05-19T18:00:55.292Z,91.88
2023-05-19T18:03:59.229Z,94.75
2023-05-19T18:07:03.775Z,94.52
2023-05-19T18:10:08.460Z,95.41
2023-05-19T18:13:14.419Z,94.14
2023-05-19T18:16:17.809Z,97.61
2023-05-19T18:19:20.962Z,97.32
2023-05-19T18:22:24.491Z,99.32
2023-05-19T18:25:27.781Z,99.04
2023-05-19T18:28:31.171Z,100.00
2023-05-19T18:31:35.712Z,100.00
2023-05-19T18:34:39.228Z,100.00
2023-05-19T18:37:42.597Z,100.00
2023-05-19T18:40:46.178Z,100.00
2023-05-19T18:43:49.357Z,100.00
2023-05-19T18:46:53.728Z,100.00
2023-05-19T18:49:56.871Z,100.00
2023-05-19T18:53:00.661Z,100.00
2023-05-19T18:56:04.263Z,100.00
2023-05-19T18:59:09.977Z,100.00
2023-05-19T19:02:13.381Z,100.00
2023-05-19T19:05:16.798Z,100.00
2023-05-19T19:08:20.087Z,100.00
2023-05-19T19:11:23.772Z,100.00
2023-05-19T19:14:26.985Z,100.00
2023-05-19T19:17:30.883Z,100.00
2023-05-19T19:20:34.968Z,100.00
2023-05-19T19:23:39.819Z,100.00
2023-05-19T19:26:42.927Z,100.00
2023-05-19T19:29:51.292Z,100.00
2023-05-19T19:32:56.726Z,100.00
2023-05-19T19:36:00.899Z,100.00
2023-05-19T19:39:04.149Z,100.00
2023-05-19T19:42:07.591Z,100.00
2023-05-19T19:45:13.100Z,100.00
2023-05-19T19:48:18.212Z,100.00
2023-05-19T19:51:21.424Z,100.00
2023-05-19T19:54:25.011Z,100.00
2023-05-19T19:57:29.371Z,100.00
2023-05-19T20:00:33.277Z,100.00
2023-05-19T20:03:37.435Z,100.00
2023-05-19T20:06:41.085Z,100.00
2023-05-19T20:09:44.607Z,100.00
2023-05-19T20:12:48.022Z,100.00
2023-05-19T20:15:51.654Z,100.00
2023-05-19T20:18:54.908Z,100.00
2023-05-19T20:21:58.379Z,100.00
2023-05-19T20:25:02.016Z,100.00
2023-05-19T20:28:05.385Z,100.00
2023-05-19T20:31:09.457Z,100.00
2023-05-19T20:34:12.956Z,100.00
2023-05-19T20:37:17.446Z,100.00
2023-05-19T20:40:20.878Z,100.00
2023-05-19T20:43:24.178Z,100.00
2023-05-19T20:46:27.891Z,100.00
2023-05-19T20:49:31.347Z,100.00
2023-05-19T20:52:34.860Z,100.00
2023-05-19T20:55:39.174Z,100.00
2023-05-19T20:58:43.126Z,100.00
2023-05-19T21:01:46.512Z,100.00
2023-05-19T21:04:50.939Z,100.00
2023-05-19T21:07:54.157Z,100.00
2023-05-19T21:10:57.539Z,100.00
2023-05-19T21:14:04.372Z,100.00
2023-05-19T21:17:08.371Z,100.00
2023-05-19T21:20:12.712Z,100.00
2023-05-19T21:23:16.181Z,100.00
2023-05-19T21:26:19.470Z,100.00
2023-05-19T21:29:22.887Z,100.00
2023-05-19T21:32:26.288Z,100.00
2023-05-19T21:35:29.725Z,100.00
2023-05-19T21:38:32.844Z,100.00
2023-05-19T21:41:36.390Z,100.00
2023-05-19T21:44:39.555Z,100.00
2023-05-19T21:47:43.147Z,100.00
2023-05-19T21:50:46.257Z,100.00
2023-05-19T21:53:49.784Z,100.00
2023-05-19T21:56:53.019Z,100.00
2023-05-19T21:59:56.632Z,100.00
2023-05-19T22:03:00.422Z,100.00
2023-05-19T22:06:06.518Z,100.00
2023-05-19T22:09:11.100Z,100.00
2023-05-19T22:12:14.462Z,100.00
2023-05-19T22:15:18.575Z,100.00
2023-05-19T22:18:22.124Z,100.00
2023-05-19T22:21:25.293Z,100.00
2023-05-19T22:24:28.778Z,100.00
2023-05-19T22:27:32.177Z,100.00
2023-05-19T22:30:38.498Z,100.00
2023-05-19T22:33:43.002Z,100.00
2023-05-19T22:36:46.416Z,100.00
2023-05-19T22:39:49.610Z,100.00
2023-05-19T22:42:53.055Z,100.00
2023-05-19T22:45:56.409Z,100.00
2023-05-19T22:49:00.159Z,100.00
2023-05-19T22:52:03.385Z,100.00
2023-05-19T22:55:07.485Z,100.00
2023-05-19T22:58:10.795Z,100.00
2023-05-19T23:01:14.236Z,100.00
2023-05-19T23:04:17.729Z,100.00
2023-05-19T23:07:21.466Z,100.00
2023-05-19T23:10:24.669Z,100.00
2023-05-19T23:13:28.233Z,100.00
2023-05-19T23:16:31.508Z,100.00
2023-05-19T23:19:36.573Z,100.00
2023-05-19T23:22:39.771Z,100.00
2023-05-19T23:25:43.243Z,100.00
2023-05-19T23:28:46.375Z,100.00
2023-05-19T23:31:49.796Z,100.00
2023-05-19T23:34:52.920Z,100.00
2023-05-19T23:37:56.580Z,100.00
2023-05-19T23:40:59.761Z,100.00
2023-05-19T23:44:04.230Z,100.00
2023-05-19T23:47:07.544Z,100.00
2023-05-19T23:50:11.545Z,100.00
2023-05-19T23:53:14.766Z,100.00
2023-05-19T23:56:18.374Z,100.00
2023-05-19T23:59:21.493Z,100.00
